Idlewild, Tennessee
Current Conditions -  °F | °C
As of 6:15 PM on Wednesday 26 Nov 2014 (Local Time) from KUCY Reporting Station
Scattered Clouds Scattered Clouds  
Wind Chill: 30°   Ceiling: Unl
Heat Index: 37°   Visibility: 10mi
Dew Point: 34°   Wind: 12mph
Humidity: 87%   Direction: 280°W
Pressure: 30.05"   Gusts: NA
Location:  36.02°N, 88.8°W
Report Text: KUCY 270015Z AUTO 28010KT 10SM FEW022 SCT070 03/01 A3005 RMK
Loading
Personal Weather Stations






























Interactive Weather Map New forecast layout! Learn more

10-Day Weather Forecast

Advertisements
Track Severe Weather on mobile